createdAt,value
2023-04-06T00:04:02.182Z,2.89
2023-04-06T00:09:07.280Z,2.84
2023-04-06T00:14:09.108Z,2.77
2023-04-06T00:19:18.251Z,2.70
2023-04-06T00:24:19.983Z,2.68
2023-04-06T00:29:21.762Z,2.67
2023-04-06T00:34:23.506Z,2.60
2023-04-06T00:39:27.744Z,2.54
2023-04-06T00:44:29.556Z,2.47
2023-04-06T00:49:31.386Z,2.41
2023-04-06T00:54:35.401Z,2.34
2023-04-06T00:59:37.907Z,2.25
2023-04-06T01:04:44.797Z,2.20
2023-04-06T01:09:55.734Z,2.20
2023-04-06T01:15:03.830Z,2.18
2023-04-06T01:20:08.529Z,2.14
2023-04-06T01:25:11.541Z,2.07
2023-04-06T01:30:27.650Z,2.04
2023-04-06T01:35:36.635Z,1.98
2023-04-06T01:40:48.301Z,1.92
2023-04-06T01:45:54.773Z,1.89
2023-04-06T01:51:04.856Z,1.88
2023-04-06T01:56:18.081Z,1.81
2023-04-06T02:01:28.873Z,1.78
2023-04-06T02:06:32.971Z,1.76
2023-04-06T02:11:40.047Z,1.75
2023-04-06T02:16:42.261Z,1.73
2023-04-06T02:21:46.866Z,1.69
2023-04-06T02:26:53.328Z,1.67
2023-04-06T02:31:55.160Z,1.73
2023-04-06T02:36:57.550Z,1.65
2023-04-06T02:41:59.345Z,1.59
2023-04-06T02:47:01.777Z,1.53
2023-04-06T02:52:06.742Z,1.48
2023-04-06T02:57:11.194Z,1.42
2023-04-06T03:02:19.485Z,1.40
2023-04-06T03:07:24.880Z,1.35
2023-04-06T03:12:28.955Z,1.36
2023-04-06T03:17:50.645Z,1.36
2023-04-06T03:23:06.973Z,1.29
2023-04-06T03:28:13.213Z,1.17
2023-04-06T03:33:28.681Z,1.03
2023-04-06T03:38:32.043Z,0.93
2023-04-06T03:43:34.195Z,0.89
2023-04-06T03:48:36.137Z,0.85
2023-04-06T03:53:40.768Z,0.85
2023-04-06T03:58:51.421Z,0.73
2023-04-06T04:04:00.665Z,0.73
2023-04-06T04:09:06.904Z,0.61
2023-04-06T04:14:11.014Z,0.48
2023-04-06T04:19:12.932Z,0.42
2023-04-06T04:24:17.842Z,0.39
2023-04-06T04:29:22.368Z,0.34
2023-04-06T04:34:28.106Z,0.34
2023-04-06T04:39:32.799Z,0.32
2023-04-06T04:44:42.096Z,0.41
2023-04-06T04:49:51.287Z,0.41
2023-04-06T04:54:57.724Z,0.54
2023-04-06T05:00:03.807Z,0.67
2023-04-06T05:05:09.436Z,0.72
2023-04-06T05:10:11.766Z,0.97
2023-04-06T05:15:24.265Z,1.11
2023-04-06T05:20:31.202Z,1.10
2023-04-06T05:25:34.130Z,1.04
2023-04-06T05:30:49.280Z,0.97
2023-04-06T05:35:52.243Z,1.09
2023-04-06T05:40:54.511Z,1.18
2023-04-06T05:46:00.373Z,1.27
2023-04-06T05:51:07.222Z,1.34
2023-04-06T05:56:18.359Z,1.39
2023-04-06T06:01:21.574Z,1.51
2023-04-06T06:06:26.092Z,1.63
2023-04-06T06:11:56.162Z,1.78
2023-04-06T06:17:01.542Z,1.92
2023-04-06T06:22:06.500Z,2.11
2023-04-06T06:27:12.588Z,2.32
2023-04-06T06:32:17.640Z,2.46
2023-04-06T06:37:26.952Z,2.64
2023-04-06T06:42:32.259Z,2.82
2023-04-06T06:47:44.328Z,2.99
2023-04-06T06:52:47.107Z,3.11
2023-04-06T06:57:51.176Z,3.22
2023-04-06T07:02:53.062Z,3.37
2023-04-06T07:08:00.976Z,3.52
2023-04-06T07:13:02.831Z,3.68
2023-04-06T07:18:04.753Z,3.86
2023-04-06T07:23:10.543Z,4.01
2023-04-06T07:28:17.479Z,4.14
2023-04-06T07:33:19.945Z,4.25
2023-04-06T07:38:27.232Z,4.46
2023-04-06T07:43:29.566Z,4.58
2023-04-06T07:48:34.034Z,4.72
2023-04-06T07:53:38.224Z,4.86
2023-04-06T07:58:45.651Z,4.98
2023-04-06T08:03:52.497Z,5.14
2023-04-06T08:08:54.872Z,5.24
2023-04-06T08:13:58.453Z,5.32
2023-04-06T08:19:02.506Z,5.50
2023-04-06T08:24:04.574Z,5.65
2023-04-06T08:29:08.672Z,6.02
2023-04-06T08:34:14.412Z,6.18
2023-04-06T08:39:26.477Z,6.21
2023-04-06T08:44:30.953Z,6.37
2023-04-06T08:49:38.670Z,6.55
2023-04-06T08:54:42.571Z,6.75
2023-04-06T08:59:46.937Z,6.87
2023-04-06T09:04:54.698Z,7.00
2023-04-06T09:09:56.639Z,7.10
2023-04-06T09:15:01.164Z,7.30
2023-04-06T09:20:04.209Z,7.51
2023-04-06T09:25:07.231Z,7.73
2023-04-06T09:30:14.707Z,7.91
2023-04-06T09:35:21.078Z,7.99
2023-04-06T09:40:23.330Z,8.16
2023-04-06T09:45:25.719Z,8.38
2023-04-06T09:50:27.976Z,8.58
2023-04-06T09:55:41.690Z,8.78
2023-04-06T10:00:54.682Z,8.74
2023-04-06T10:06:01.529Z,8.96
2023-04-06T10:11:03.383Z,9.04
2023-04-06T10:16:10.816Z,9.28
2023-04-06T10:21:21.985Z,9.35
2023-04-06T10:26:26.426Z,9.52
2023-04-06T10:31:32.338Z,9.62
2023-04-06T10:36:34.994Z,9.72
2023-04-06T10:41:43.566Z,9.71
2023-04-06T10:46:56.912Z,9.73
2023-04-06T10:52:01.285Z,9.77
2023-04-06T10:57:05.302Z,10.03
2023-04-06T11:02:12.149Z,10.28
2023-04-06T11:07:31.100Z,10.41
2023-04-06T11:12:37.547Z,10.42
2023-04-06T11:17:39.390Z,10.77
2023-04-06T11:22:53.696Z,10.88
2023-04-06T11:27:55.542Z,10.95
2023-04-06T11:33:02.306Z,11.12
2023-04-06T11:38:06.820Z,11.48
2023-04-06T11:43:12.772Z,11.92
2023-04-06T11:48:21.921Z,12.27
2023-04-06T11:53:26.842Z,12.72
2023-04-06T11:58:28.568Z,13.97
2023-04-06T12:03:30.492Z,14.64
2023-04-06T12:08:34.881Z,15.64
2023-04-06T12:13:39.421Z,16.38
2023-04-06T12:18:41.383Z,16.73
2023-04-06T12:23:43.247Z,17.53
2023-04-06T12:28:49.225Z,18.33
2023-04-06T12:33:51.553Z,18.89
2023-04-06T12:38:55.568Z,19.26
2023-04-06T12:43:57.670Z,19.93
2023-04-06T12:49:02.115Z,19.35
2023-04-06T12:54:04.122Z,20.02
2023-04-06T12:59:06.480Z,20.32
2023-04-06T13:04:10.488Z,20.09
2023-04-06T13:09:12.209Z,20.30
2023-04-06T13:14:19.195Z,20.71
2023-04-06T13:19:23.648Z,22.10
2023-04-06T13:24:27.991Z,21.45
2023-04-06T13:29:35.280Z,22.48
2023-04-06T13:34:39.401Z,22.68
2023-04-06T13:39:43.608Z,21.57
2023-04-06T13:44:47.789Z,20.64
2023-04-06T13:49:52.265Z,20.52
2023-04-06T13:54:54.063Z,20.42
2023-04-06T13:59:56.447Z,19.86
2023-04-06T14:04:58.190Z,19.79
2023-04-06T14:09:59.978Z,20.88
2023-04-06T14:15:04.643Z,22.47
2023-04-06T14:20:09.503Z,23.99
2023-04-06T14:25:14.225Z,22.97
2023-04-06T14:30:20.832Z,21.70
2023-04-06T14:35:26.302Z,20.73
2023-04-06T14:40:30.475Z,20.97
2023-04-06T14:45:37.767Z,22.53
2023-04-06T14:50:47.268Z,23.16
2023-04-06T14:55:52.278Z,22.90
2023-04-06T15:01:02.367Z,22.67
2023-04-06T15:06:04.278Z,22.77
2023-04-06T15:11:06.254Z,22.30
2023-04-06T15:16:11.058Z,21.83
2023-04-06T15:21:13.222Z,21.07
2023-04-06T15:26:17.278Z,20.92
2023-04-06T15:31:36.532Z,20.35
2023-04-06T15:36:39.840Z,19.21
2023-04-06T15:41:44.115Z,19.17
2023-04-06T15:46:45.852Z,19.48
2023-04-06T15:51:51.329Z,19.37
2023-04-06T15:56:57.918Z,19.02
2023-04-06T16:02:00.556Z,18.56
2023-04-06T16:07:04.652Z,18.02
2023-04-06T16:12:06.806Z,17.35
2023-04-06T16:17:08.564Z,17.08
2023-04-06T16:22:10.756Z,16.85
2023-04-06T16:27:14.851Z,16.58
2023-04-06T16:32:16.791Z,16.10
2023-04-06T16:37:20.878Z,15.77
2023-04-06T16:42:22.622Z,15.52
2023-04-06T16:47:24.299Z,15.43
2023-04-06T16:52:30.536Z,15.07
2023-04-06T16:57:34.628Z,14.82
2023-04-06T17:02:38.519Z,14.68
2023-04-06T17:07:40.298Z,14.52
2023-04-06T17:12:46.470Z,14.35
2023-04-06T17:17:48.254Z,14.14
2023-04-06T17:22:54.696Z,13.84
2023-04-06T17:27:56.450Z,13.70
2023-04-06T17:33:01.149Z,13.54
2023-04-06T17:38:02.889Z,13.31
2023-04-06T17:43:05.575Z,13.15
2023-04-06T17:48:07.799Z,13.01
2023-04-06T17:53:09.586Z,12.83
2023-04-06T17:58:13.603Z,12.63
2023-04-06T18:03:15.395Z,12.45
2023-04-06T18:08:22.399Z,12.29
2023-04-06T18:13:24.352Z,12.10
2023-04-06T18:18:29.156Z,12.00
2023-04-06T18:23:34.422Z,11.84
2023-04-06T18:28:36.887Z,11.72
2023-04-06T18:33:38.799Z,11.55
2023-04-06T18:38:47.890Z,11.46
2023-04-06T18:43:54.867Z,11.73
2023-04-06T18:48:58.945Z,11.24
2023-04-06T18:54:03.810Z,11.00
2023-04-06T18:59:10.786Z,10.88
2023-04-06T19:04:12.847Z,10.74
2023-04-06T19:09:14.727Z,10.62
2023-04-06T19:14:18.756Z,10.55
2023-04-06T19:19:22.805Z,10.48
2023-04-06T19:24:24.551Z,10.49
2023-04-06T19:29:26.693Z,10.59
2023-04-06T19:34:30.555Z,10.60
2023-04-06T19:39:36.712Z,10.42
2023-04-06T19:44:42.945Z,10.26
2023-04-06T19:49:47.308Z,10.14
2023-04-06T19:54:49.064Z,10.08
2023-04-06T19:59:50.887Z,10.06
2023-04-06T20:04:54.831Z,10.07
2023-04-06T20:09:58.817Z,10.16
2023-04-06T20:15:00.725Z,10.22
2023-04-06T20:20:02.514Z,10.16
2023-04-06T20:25:07.321Z,10.07
2023-04-06T20:30:09.675Z,10.00
2023-04-06T20:35:11.633Z,10.03
2023-04-06T20:40:15.678Z,10.37
2023-04-06T20:45:20.406Z,10.13
2023-04-06T20:50:22.431Z,9.85
2023-04-06T20:55:27.819Z,9.56
2023-04-06T21:00:34.385Z,9.49
2023-04-06T21:05:39.171Z,9.38
2023-04-06T21:10:40.874Z,9.38
2023-04-06T21:15:44.822Z,9.32
2023-04-06T21:20:49.564Z,9.26
2023-04-06T21:25:56.981Z,9.20
2023-04-06T21:31:07.036Z,9.11
2023-04-06T21:36:11.352Z,9.03
2023-04-06T21:41:13.162Z,8.91
2023-04-06T21:46:14.993Z,8.76
2023-04-06T21:51:18.000Z,8.61
2023-04-06T21:56:24.331Z,8.53
2023-04-06T22:01:27.788Z,8.40
2023-04-06T22:06:30.218Z,8.27
2023-04-06T22:11:34.186Z,8.13
2023-04-06T22:16:38.140Z,7.98
2023-04-06T22:21:42.163Z,7.90
2023-04-06T22:26:43.812Z,7.79
2023-04-06T22:31:47.194Z,7.75
2023-04-06T22:36:51.287Z,7.70
2023-04-06T22:41:52.948Z,7.63
2023-04-06T22:46:54.661Z,7.60
2023-04-06T22:51:58.655Z,7.64
2023-04-06T22:57:03.150Z,7.63
2023-04-06T23:02:09.776Z,7.58
2023-04-06T23:07:15.413Z,7.59
2023-04-06T23:12:20.354Z,7.57
2023-04-06T23:17:24.793Z,7.55
2023-04-06T23:22:28.833Z,7.57
2023-04-06T23:27:30.528Z,7.55
2023-04-06T23:32:36.922Z,7.54
2023-04-06T23:37:43.748Z,7.49
2023-04-06T23:42:45.488Z,7.42
2023-04-06T23:47:47.282Z,7.32
2023-04-06T23:52:51.077Z,7.22
2023-04-06T23:57:52.810Z,7.09
